Sicamous, Canada
Current Conditions -  °F | °C
As of 12:07 AM on Saturday 20 Dec 2014 (Local Time) from CYRV Reporting Station
Haze Haze  
Wind Chill: 34°   Ceiling: 500
Heat Index: 34°   Visibility: 5mi
Dew Point: 32°   Wind: 2mph
Humidity: 93%   Direction: NA
Pressure: 29.95"   Gusts: NA
Location:  50.83°N, 119°W
Report Text: CYRV 200807Z AUTO VRB02KT 5SM BR OVC005 01/00 A2995 RMK SLP160
Loading
Personal Weather Stations






























Interactive Weather Map New forecast layout! Learn more

10-Day Weather Forecast

Advertisements
Track Severe Weather on mobile